sensor_id;sensor_type;location;lat;lon;timestamp;temperature;humidity
16929;DHT22;8581;47.334;11.190;2024-03-22T00:01:26;3.30;99.90
16929;DHT22;8581;47.334;11.190;2024-03-22T00:03:58;3.30;99.90
16929;DHT22;8581;47.334;11.190;2024-03-22T00:06:30;3.20;99.90
16929;DHT22;8581;47.334;11.190;2024-03-22T00:09:02;3.20;99.90
16929;DHT22;8581;47.334;11.190;2024-03-22T00:11:34;3.10;99.90
16929;DHT22;8581;47.334;11.190;2024-03-22T00:14:06;3.10;99.90
16929;DHT22;8581;47.334;11.190;2024-03-22T00:16:38;3.10;99.90
16929;DHT22;8581;47.334;11.190;2024-03-22T00:19:11;3.10;99.90
16929;DHT22;8581;47.334;11.190;2024-03-22T00:21:42;2.90;99.90
16929;DHT22;8581;47.334;11.190;2024-03-22T00:24:14;2.90;99.90
16929;DHT22;8581;47.334;11.190;2024-03-22T00:26:46;2.90;99.90
16929;DHT22;8581;47.334;11.190;2024-03-22T00:29:17;2.80;99.90
16929;DHT22;8581;47.334;11.190;2024-03-22T00:31:49;2.90;99.90
16929;DHT22;8581;47.334;11.190;2024-03-22T00:34:21;2.90;99.90
16929;DHT22;8581;47.334;11.190;2024-03-22T00:36:53;2.90;99.90
16929;DHT22;8581;47.334;11.190;2024-03-22T00:39:25;3.00;99.90
16929;DHT22;8581;47.334;11.190;2024-03-22T00:41:58;3.20;99.90
16929;DHT22;8581;47.334;11.190;2024-03-22T00:44:29;3.20;99.90
16929;DHT22;8581;47.334;11.190;2024-03-22T00:47:02;3.30;99.90
16929;DHT22;8581;47.334;11.190;2024-03-22T00:49:33;3.30;99.90
16929;DHT22;8581;47.334;11.190;2024-03-22T00:52:05;3.40;99.90
16929;DHT22;8581;47.334;11.190;2024-03-22T00:54:37;3.40;99.90
16929;DHT22;8581;47.334;11.190;2024-03-22T00:57:09;3.40;99.90
16929;DHT22;8581;47.334;11.190;2024-03-22T00:59:41;3.50;99.90
16929;DHT22;8581;47.334;11.190;2024-03-22T01:02:12;3.50;99.90
16929;DHT22;8581;47.334;11.190;2024-03-22T01:04:44;3.60;99.90
16929;DHT22;8581;47.334;11.190;2024-03-22T01:07:16;3.60;99.90
16929;DHT22;8581;47.334;11.190;2024-03-22T01:09:48;3.60;99.90
16929;DHT22;8581;47.334;11.190;2024-03-22T01:12:20;3.60;99.90
16929;DHT22;8581;47.334;11.190;2024-03-22T01:14:52;3.70;99.90
16929;DHT22;8581;47.334;11.190;2024-03-22T01:17:24;3.70;99.90
16929;DHT22;8581;47.334;11.190;2024-03-22T01:19:56;3.80;99.90
16929;DHT22;8581;47.334;11.190;2024-03-22T01:22:28;3.80;99.90
16929;DHT22;8581;47.334;11.190;2024-03-22T01:25:00;4.00;99.90
16929;DHT22;8581;47.334;11.190;2024-03-22T01:27:33;4.00;99.90
16929;DHT22;8581;47.334;11.190;2024-03-22T01:30:05;4.00;99.90
16929;DHT22;8581;47.334;11.190;2024-03-22T01:32:38;3.80;99.90
16929;DHT22;8581;47.334;11.190;2024-03-22T01:35:10;3.90;99.90
16929;DHT22;8581;47.334;11.190;2024-03-22T01:37:41;4.20;99.90
16929;DHT22;8581;47.334;11.190;2024-03-22T01:40:14;4.10;99.90
16929;DHT22;8581;47.334;11.190;2024-03-22T01:42:46;4.20;99.90
16929;DHT22;8581;47.334;11.190;2024-03-22T01:45:18;4.20;99.90
16929;DHT22;8581;47.334;11.190;2024-03-22T01:47:52;4.20;99.90
16929;DHT22;8581;47.334;11.190;2024-03-22T01:50:24;4.10;99.90
16929;DHT22;8581;47.334;11.190;2024-03-22T01:52:56;4.40;99.90
16929;DHT22;8581;47.334;11.190;2024-03-22T01:55:28;4.30;99.90
16929;DHT22;8581;47.334;11.190;2024-03-22T01:58:01;4.20;99.90
16929;DHT22;8581;47.334;11.190;2024-03-22T02:00:34;4.10;99.90
16929;DHT22;8581;47.334;11.190;2024-03-22T02:03:06;4.30;99.90
16929;DHT22;8581;47.334;11.190;2024-03-22T02:05:37;4.30;99.90
16929;DHT22;8581;47.334;11.190;2024-03-22T02:08:10;4.20;99.90
16929;DHT22;8581;47.334;11.190;2024-03-22T02:10:42;4.20;99.90
16929;DHT22;8581;47.334;11.190;2024-03-22T02:13:14;4.00;99.90
16929;DHT22;8581;47.334;11.190;2024-03-22T02:15:46;4.20;99.90
16929;DHT22;8581;47.334;11.190;2024-03-22T02:18:18;4.40;99.90
16929;DHT22;8581;47.334;11.190;2024-03-22T02:20:51;4.20;99.90
16929;DHT22;8581;47.334;11.190;2024-03-22T02:23:32;4.20;99.90
16929;DHT22;8581;47.334;11.190;2024-03-22T02:26:05;4.40;99.90
16929;DHT22;8581;47.334;11.190;2024-03-22T02:28:37;4.40;99.90
16929;DHT22;8581;47.334;11.190;2024-03-22T02:31:09;4.40;99.90
16929;DHT22;8581;47.334;11.190;2024-03-22T02:33:41;4.30;99.90
16929;DHT22;8581;47.334;11.190;2024-03-22T02:36:13;4.50;99.90
16929;DHT22;8581;47.334;11.190;2024-03-22T02:38:45;4.60;99.90
16929;DHT22;8581;47.334;11.190;2024-03-22T02:41:17;4.80;99.90
16929;DHT22;8581;47.334;11.190;2024-03-22T02:43:50;4.60;99.90
16929;DHT22;8581;47.334;11.190;2024-03-22T02:46:22;4.60;99.90
16929;DHT22;8581;47.334;11.190;2024-03-22T02:48:54;4.50;99.90
16929;DHT22;8581;47.334;11.190;2024-03-22T02:51:26;4.60;99.90
16929;DHT22;8581;47.334;11.190;2024-03-22T02:53:57;4.50;99.90
16929;DHT22;8581;47.334;11.190;2024-03-22T02:56:30;4.50;99.90
16929;DHT22;8581;47.334;11.190;2024-03-22T02:59:02;4.60;99.90
16929;DHT22;8581;47.334;11.190;2024-03-22T03:01:34;4.60;99.90
16929;DHT22;8581;47.334;11.190;2024-03-22T03:04:06;4.80;99.90
16929;DHT22;8581;47.334;11.190;2024-03-22T03:06:38;4.80;99.90
16929;DHT22;8581;47.334;11.190;2024-03-22T03:09:10;4.90;99.90
16929;DHT22;8581;47.334;11.190;2024-03-22T03:11:42;4.80;99.90
16929;DHT22;8581;47.334;11.190;2024-03-22T03:14:15;5.10;99.90
16929;DHT22;8581;47.334;11.190;2024-03-22T03:16:47;5.20;99.90
16929;DHT22;8581;47.334;11.190;2024-03-22T03:19:19;5.20;99.90
16929;DHT22;8581;47.334;11.190;2024-03-22T03:21:51;5.00;99.90
16929;DHT22;8581;47.334;11.190;2024-03-22T03:24:22;5.10;99.90
16929;DHT22;8581;47.334;11.190;2024-03-22T03:26:54;5.10;99.90
16929;DHT22;8581;47.334;11.190;2024-03-22T03:29:26;5.10;99.90
16929;DHT22;8581;47.334;11.190;2024-03-22T03:31:59;5.10;99.90
16929;DHT22;8581;47.334;11.190;2024-03-22T03:34:31;5.00;99.90
16929;DHT22;8581;47.334;11.190;2024-03-22T03:37:03;4.90;99.90
16929;DHT22;8581;47.334;11.190;2024-03-22T03:39:35;5.00;99.90
16929;DHT22;8581;47.334;11.190;2024-03-22T03:42:08;5.00;99.90
16929;DHT22;8581;47.334;11.190;2024-03-22T03:44:40;4.90;99.90
16929;DHT22;8581;47.334;11.190;2024-03-22T03:47:13;5.10;99.90
16929;DHT22;8581;47.334;11.190;2024-03-22T03:49:45;4.90;99.90
16929;DHT22;8581;47.334;11.190;2024-03-22T03:52:18;5.00;99.90
16929;DHT22;8581;47.334;11.190;2024-03-22T03:54:50;4.70;99.90
16929;DHT22;8581;47.334;11.190;2024-03-22T03:57:22;4.90;99.90
16929;DHT22;8581;47.334;11.190;2024-03-22T03:59:54;4.80;99.90
16929;DHT22;8581;47.334;11.190;2024-03-22T04:02:26;5.00;99.90
16929;DHT22;8581;47.334;11.190;2024-03-22T04:04:58;5.10;99.90
16929;DHT22;8581;47.334;11.190;2024-03-22T04:07:30;4.90;99.90
16929;DHT22;8581;47.334;11.190;2024-03-22T04:10:03;4.70;99.90
16929;DHT22;8581;47.334;11.190;2024-03-22T04:12:35;4.80;99.90
16929;DHT22;8581;47.334;11.190;2024-03-22T04:15:08;4.50;99.90
16929;DHT22;8581;47.334;11.190;2024-03-22T04:17:40;4.40;99.90
16929;DHT22;8581;47.334;11.190;2024-03-22T04:20:12;4.20;99.90
16929;DHT22;8581;47.334;11.190;2024-03-22T04:22:44;4.40;99.90
16929;DHT22;8581;47.334;11.190;2024-03-22T04:25:16;4.30;99.90
16929;DHT22;8581;47.334;11.190;2024-03-22T04:27:48;4.50;99.90
16929;DHT22;8581;47.334;11.190;2024-03-22T04:30:21;4.30;99.90
16929;DHT22;8581;47.334;11.190;2024-03-22T04:32:53;4.30;99.90
16929;DHT22;8581;47.334;11.190;2024-03-22T04:35:24;4.40;99.90
16929;DHT22;8581;47.334;11.190;2024-03-22T04:37:57;4.60;99.90
16929;DHT22;8581;47.334;11.190;2024-03-22T04:40:29;4.50;99.90
16929;DHT22;8581;47.334;11.190;2024-03-22T04:43:01;4.30;99.90
16929;DHT22;8581;47.334;11.190;2024-03-22T04:45:34;4.30;99.90
16929;DHT22;8581;47.334;11.190;2024-03-22T04:48:06;4.40;99.90
16929;DHT22;8581;47.334;11.190;2024-03-22T04:50:38;4.30;99.90
16929;DHT22;8581;47.334;11.190;2024-03-22T04:53:10;4.10;99.90
16929;DHT22;8581;47.334;11.190;2024-03-22T04:55:43;4.20;99.90
16929;DHT22;8581;47.334;11.190;2024-03-22T04:58:17;4.50;99.90
16929;DHT22;8581;47.334;11.190;2024-03-22T05:00:56;4.70;99.90
16929;DHT22;8581;47.334;11.190;2024-03-22T05:03:23;5.00;99.90
16929;DHT22;8581;47.334;11.190;2024-03-22T05:05:55;4.80;99.90
16929;DHT22;8581;47.334;11.190;2024-03-22T05:08:27;4.60;99.90
16929;DHT22;8581;47.334;11.190;2024-03-22T05:10:59;4.40;99.90
16929;DHT22;8581;47.334;11.190;2024-03-22T05:13:31;4.50;99.90
16929;DHT22;8581;47.334;11.190;2024-03-22T05:16:03;4.50;99.90
16929;DHT22;8581;47.334;11.190;2024-03-22T05:18:35;4.40;99.90
16929;DHT22;8581;47.334;11.190;2024-03-22T05:21:07;4.50;99.90
16929;DHT22;8581;47.334;11.190;2024-03-22T05:23:39;4.20;99.90
16929;DHT22;8581;47.334;11.190;2024-03-22T05:26:12;4.40;99.90
16929;DHT22;8581;47.334;11.190;2024-03-22T05:28:43;4.60;99.90
16929;DHT22;8581;47.334;11.190;2024-03-22T05:31:15;4.60;99.90
16929;DHT22;8581;47.334;11.190;2024-03-22T05:33:48;4.40;99.90
16929;DHT22;8581;47.334;11.190;2024-03-22T05:36:20;4.60;99.90
16929;DHT22;8581;47.334;11.190;2024-03-22T05:38:52;4.60;99.90
16929;DHT22;8581;47.334;11.190;2024-03-22T05:41:24;4.40;99.90
16929;DHT22;8581;47.334;11.190;2024-03-22T05:43:57;4.60;99.90
16929;DHT22;8581;47.334;11.190;2024-03-22T05:46:29;4.60;99.90
16929;DHT22;8581;47.334;11.190;2024-03-22T05:49:01;4.50;99.90
16929;DHT22;8581;47.334;11.190;2024-03-22T05:51:33;4.30;99.90
16929;DHT22;8581;47.334;11.190;2024-03-22T05:54:05;4.30;99.90
16929;DHT22;8581;47.334;11.190;2024-03-22T05:56:37;4.30;99.90
16929;DHT22;8581;47.334;11.190;2024-03-22T05:59:09;4.70;99.90
16929;DHT22;8581;47.334;11.190;2024-03-22T06:01:41;4.70;99.90
16929;DHT22;8581;47.334;11.190;2024-03-22T06:04:13;4.60;99.90
16929;DHT22;8581;47.334;11.190;2024-03-22T06:06:46;4.60;99.90
16929;DHT22;8581;47.334;11.190;2024-03-22T06:09:18;4.70;99.90
16929;DHT22;8581;47.334;11.190;2024-03-22T06:11:51;4.40;99.90
16929;DHT22;8581;47.334;11.190;2024-03-22T06:14:23;4.40;99.90
16929;DHT22;8581;47.334;11.190;2024-03-22T06:16:55;4.20;99.90
16929;DHT22;8581;47.334;11.190;2024-03-22T06:19:27;4.10;99.90
16929;DHT22;8581;47.334;11.190;2024-03-22T06:21:59;4.00;99.90
16929;DHT22;8581;47.334;11.190;2024-03-22T06:24:32;4.20;99.90
16929;DHT22;8581;47.334;11.190;2024-03-22T06:27:04;4.30;99.90
16929;DHT22;8581;47.334;11.190;2024-03-22T06:29:36;4.50;99.90
16929;DHT22;8581;47.334;11.190;2024-03-22T06:32:08;4.60;99.90
16929;DHT22;8581;47.334;11.190;2024-03-22T06:34:40;4.60;99.90
16929;DHT22;8581;47.334;11.190;2024-03-22T06:37:12;4.60;99.90
16929;DHT22;8581;47.334;11.190;2024-03-22T06:39:44;4.40;99.90
16929;DHT22;8581;47.334;11.190;2024-03-22T06:42:16;4.60;99.90
16929;DHT22;8581;47.334;11.190;2024-03-22T06:44:48;4.60;99.90
16929;DHT22;8581;47.334;11.190;2024-03-22T06:47:20;4.40;99.90
16929;DHT22;8581;47.334;11.190;2024-03-22T06:49:53;4.40;99.90
16929;DHT22;8581;47.334;11.190;2024-03-22T06:52:25;4.40;99.90
16929;DHT22;8581;47.334;11.190;2024-03-22T06:54:57;4.30;99.90
16929;DHT22;8581;47.334;11.190;2024-03-22T06:57:29;4.60;99.90
16929;DHT22;8581;47.334;11.190;2024-03-22T07:00:02;4.60;99.90
16929;DHT22;8581;47.334;11.190;2024-03-22T07:02:34;4.60;99.90
16929;DHT22;8581;47.334;11.190;2024-03-22T07:05:07;4.80;99.90
16929;DHT22;8581;47.334;11.190;2024-03-22T07:07:39;5.00;99.90
16929;DHT22;8581;47.334;11.190;2024-03-22T07:10:12;4.80;99.90
16929;DHT22;8581;47.334;11.190;2024-03-22T07:12:44;5.00;99.90
16929;DHT22;8581;47.334;11.190;2024-03-22T07:15:16;5.10;99.90
16929;DHT22;8581;47.334;11.190;2024-03-22T07:17:48;5.20;99.90
16929;DHT22;8581;47.334;11.190;2024-03-22T07:20:21;5.20;99.90
16929;DHT22;8581;47.334;11.190;2024-03-22T07:22:53;5.20;99.90
16929;DHT22;8581;47.334;11.190;2024-03-22T07:25:25;5.50;99.90
16929;DHT22;8581;47.334;11.190;2024-03-22T07:27:57;5.50;99.90
16929;DHT22;8581;47.334;11.190;2024-03-22T07:30:29;5.50;99.90
16929;DHT22;8581;47.334;11.190;2024-03-22T07:33:01;5.60;99.90
16929;DHT22;8581;47.334;11.190;2024-03-22T07:35:35;5.60;99.90
16929;DHT22;8581;47.334;11.190;2024-03-22T07:38:06;5.70;99.90
16929;DHT22;8581;47.334;11.190;2024-03-22T07:40:38;5.80;99.90
16929;DHT22;8581;47.334;11.190;2024-03-22T07:43:10;5.80;99.90
16929;DHT22;8581;47.334;11.190;2024-03-22T07:45:42;6.00;99.90
16929;DHT22;8581;47.334;11.190;2024-03-22T07:48:15;6.20;99.90
16929;DHT22;8581;47.334;11.190;2024-03-22T07:50:55;5.90;99.90
16929;DHT22;8581;47.334;11.190;2024-03-22T07:53:19;5.80;99.90
16929;DHT22;8581;47.334;11.190;2024-03-22T07:55:51;5.90;99.90
16929;DHT22;8581;47.334;11.190;2024-03-22T07:58:23;6.30;99.90
16929;DHT22;8581;47.334;11.190;2024-03-22T08:00:56;6.30;99.90
16929;DHT22;8581;47.334;11.190;2024-03-22T08:03:28;6.40;99.90
16929;DHT22;8581;47.334;11.190;2024-03-22T08:06:00;6.50;99.90
16929;DHT22;8581;47.334;11.190;2024-03-22T08:08:32;6.50;99.90
16929;DHT22;8581;47.334;11.190;2024-03-22T08:11:05;6.50;99.90
16929;DHT22;8581;47.334;11.190;2024-03-22T08:13:37;6.70;99.90
16929;DHT22;8581;47.334;11.190;2024-03-22T08:16:09;7.00;99.90
16929;DHT22;8581;47.334;11.190;2024-03-22T08:18:41;7.00;99.90
16929;DHT22;8581;47.334;11.190;2024-03-22T08:21:13;7.00;99.90
16929;DHT22;8581;47.334;11.190;2024-03-22T08:23:45;7.10;99.90
16929;DHT22;8581;47.334;11.190;2024-03-22T08:26:17;7.40;99.90
16929;DHT22;8581;47.334;11.190;2024-03-22T08:28:49;7.60;99.90
16929;DHT22;8581;47.334;11.190;2024-03-22T08:31:21;8.00;99.90
16929;DHT22;8581;47.334;11.190;2024-03-22T08:33:52;8.10;99.90
16929;DHT22;8581;47.334;11.190;2024-03-22T08:36:24;8.50;99.90
16929;DHT22;8581;47.334;11.190;2024-03-22T08:38:56;8.80;99.90
16929;DHT22;8581;47.334;11.190;2024-03-22T08:41:28;9.10;99.90
16929;DHT22;8581;47.334;11.190;2024-03-22T08:43:59;8.90;99.90
16929;DHT22;8581;47.334;11.190;2024-03-22T08:46:31;8.90;99.90
16929;DHT22;8581;47.334;11.190;2024-03-22T08:49:03;9.20;99.90
16929;DHT22;8581;47.334;11.190;2024-03-22T08:51:35;9.50;99.90
16929;DHT22;8581;47.334;11.190;2024-03-22T08:54:07;9.60;99.90
16929;DHT22;8581;47.334;11.190;2024-03-22T08:56:38;9.60;99.90
16929;DHT22;8581;47.334;11.190;2024-03-22T08:59:11;9.70;99.90
16929;DHT22;8581;47.334;11.190;2024-03-22T09:01:43;10.00;99.90
16929;DHT22;8581;47.334;11.190;2024-03-22T09:04:15;10.20;99.90
16929;DHT22;8581;47.334;11.190;2024-03-22T09:06:46;10.60;99.90
16929;DHT22;8581;47.334;11.190;2024-03-22T09:09:18;11.20;99.90
16929;DHT22;8581;47.334;11.190;2024-03-22T09:11:50;11.00;99.90
16929;DHT22;8581;47.334;11.190;2024-03-22T09:14:22;11.40;99.90
16929;DHT22;8581;47.334;11.190;2024-03-22T09:16:54;11.50;99.90
16929;DHT22;8581;47.334;11.190;2024-03-22T09:19:25;11.30;99.90
16929;DHT22;8581;47.334;11.190;2024-03-22T09:21:57;11.30;99.90
16929;DHT22;8581;47.334;11.190;2024-03-22T09:24:29;11.20;99.90
16929;DHT22;8581;47.334;11.190;2024-03-22T09:27:01;11.40;99.90
16929;DHT22;8581;47.334;11.190;2024-03-22T09:29:33;11.30;99.90
16929;DHT22;8581;47.334;11.190;2024-03-22T09:32:05;11.50;99.90
16929;DHT22;8581;47.334;11.190;2024-03-22T09:34:37;11.90;99.90
16929;DHT22;8581;47.334;11.190;2024-03-22T09:37:09;12.40;99.90
16929;DHT22;8581;47.334;11.190;2024-03-22T09:39:40;12.00;99.90
16929;DHT22;8581;47.334;11.190;2024-03-22T09:42:13;12.60;99.90
16929;DHT22;8581;47.334;11.190;2024-03-22T09:44:47;13.60;99.90
16929;DHT22;8581;47.334;11.190;2024-03-22T09:47:19;13.80;99.90
16929;DHT22;8581;47.334;11.190;2024-03-22T09:49:51;13.40;99.90
16929;DHT22;8581;47.334;11.190;2024-03-22T09:52:23;13.20;99.90
16929;DHT22;8581;47.334;11.190;2024-03-22T09:54:54;13.30;99.90
16929;DHT22;8581;47.334;11.190;2024-03-22T09:57:26;13.40;99.90
16929;DHT22;8581;47.334;11.190;2024-03-22T09:59:58;13.50;99.90
16929;DHT22;8581;47.334;11.190;2024-03-22T10:02:30;13.40;99.90
16929;DHT22;8581;47.334;11.190;2024-03-22T10:05:02;13.40;99.90
16929;DHT22;8581;47.334;11.190;2024-03-22T10:07:35;13.90;99.90
16929;DHT22;8581;47.334;11.190;2024-03-22T10:10:07;14.20;99.90
16929;DHT22;8581;47.334;11.190;2024-03-22T10:12:39;14.30;99.90
16929;DHT22;8581;47.334;11.190;2024-03-22T10:15:11;13.80;99.90
16929;DHT22;8581;47.334;11.190;2024-03-22T10:17:44;13.90;99.90
16929;DHT22;8581;47.334;11.190;2024-03-22T10:20:16;14.40;99.90
16929;DHT22;8581;47.334;11.190;2024-03-22T10:22:53;14.70;99.90
16929;DHT22;8581;47.334;11.190;2024-03-22T10:25:22;14.70;99.80
16929;DHT22;8581;47.334;11.190;2024-03-22T10:27:54;14.80;99.90
16929;DHT22;8581;47.334;11.190;2024-03-22T10:30:25;14.60;99.40
16929;DHT22;8581;47.334;11.190;2024-03-22T10:32:57;14.70;98.40
16929;DHT22;8581;47.334;11.190;2024-03-22T10:35:30;14.50;98.10
16929;DHT22;8581;47.334;11.190;2024-03-22T10:38:03;15.50;98.70
16929;DHT22;8581;47.334;11.190;2024-03-22T10:40:35;15.10;97.80
16929;DHT22;8581;47.334;11.190;2024-03-22T10:43:07;15.90;97.60
16929;DHT22;8581;47.334;11.190;2024-03-22T10:45:39;16.60;97.70
16929;DHT22;8581;47.334;11.190;2024-03-22T10:48:11;16.60;95.80
16929;DHT22;8581;47.334;11.190;2024-03-22T10:50:43;16.80;96.90
16929;DHT22;8581;47.334;11.190;2024-03-22T10:53:17;17.20;93.70
16929;DHT22;8581;47.334;11.190;2024-03-22T10:55:48;16.60;95.00
16929;DHT22;8581;47.334;11.190;2024-03-22T10:58:21;16.70;95.80
16929;DHT22;8581;47.334;11.190;2024-03-22T11:00:53;16.50;93.70
16929;DHT22;8581;47.334;11.190;2024-03-22T11:03:25;17.20;93.60
16929;DHT22;8581;47.334;11.190;2024-03-22T11:05:57;17.70;93.20
16929;DHT22;8581;47.334;11.190;2024-03-22T11:08:29;18.00;91.90
16929;DHT22;8581;47.334;11.190;2024-03-22T11:11:12;18.70;91.30
16929;DHT22;8581;47.334;11.190;2024-03-22T11:13:46;20.00;89.60
16929;DHT22;8581;47.334;11.190;2024-03-22T11:16:17;19.90;86.90
16929;DHT22;8581;47.334;11.190;2024-03-22T11:18:49;20.70;85.80
16929;DHT22;8581;47.334;11.190;2024-03-22T11:21:21;21.20;85.60
16929;DHT22;8581;47.334;11.190;2024-03-22T11:23:53;21.80;81.30
16929;DHT22;8581;47.334;11.190;2024-03-22T11:26:25;21.60;80.00
16929;DHT22;8581;47.334;11.190;2024-03-22T11:28:58;21.40;79.50
16929;DHT22;8581;47.334;11.190;2024-03-22T11:31:29;20.60;80.60
16929;DHT22;8581;47.334;11.190;2024-03-22T11:34:02;19.30;81.70
16929;DHT22;8581;47.334;11.190;2024-03-22T11:36:35;19.80;81.30
16929;DHT22;8581;47.334;11.190;2024-03-22T11:39:06;20.30;79.90
16929;DHT22;8581;47.334;11.190;2024-03-22T11:41:38;20.50;79.20
16929;DHT22;8581;47.334;11.190;2024-03-22T11:44:10;20.50;77.60
16929;DHT22;8581;47.334;11.190;2024-03-22T11:46:42;20.00;78.40
16929;DHT22;8581;47.334;11.190;2024-03-22T11:49:15;21.50;78.30
16929;DHT22;8581;47.334;11.190;2024-03-22T11:51:47;21.90;77.20
16929;DHT22;8581;47.334;11.190;2024-03-22T11:54:20;22.60;73.30
16929;DHT22;8581;47.334;11.190;2024-03-22T11:56:52;23.10;75.90
16929;DHT22;8581;47.334;11.190;2024-03-22T11:59:24;23.40;78.80
16929;DHT22;8581;47.334;11.190;2024-03-22T12:01:56;23.20;74.90
16929;DHT22;8581;47.334;11.190;2024-03-22T12:04:28;22.90;76.30
16929;DHT22;8581;47.334;11.190;2024-03-22T12:07:00;22.50;72.90
16929;DHT22;8581;47.334;11.190;2024-03-22T12:09:32;21.30;75.70
16929;DHT22;8581;47.334;11.190;2024-03-22T12:12:06;21.70;76.10
16929;DHT22;8581;47.334;11.190;2024-03-22T12:14:37;23.30;73.00
16929;DHT22;8581;47.334;11.190;2024-03-22T12:17:09;23.00;70.60
16929;DHT22;8581;47.334;11.190;2024-03-22T12:19:41;25.10;71.10
16929;DHT22;8581;47.334;11.190;2024-03-22T12:22:13;28.50;66.20
16929;DHT22;8581;47.334;11.190;2024-03-22T12:24:45;28.10;63.90
16929;DHT22;8581;47.334;11.190;2024-03-22T12:27:17;29.00;64.70
16929;DHT22;8581;47.334;11.190;2024-03-22T12:29:49;27.80;61.20
16929;DHT22;8581;47.334;11.190;2024-03-22T12:32:21;29.10;59.70
16929;DHT22;8581;47.334;11.190;2024-03-22T12:34:53;27.40;60.50
16929;DHT22;8581;47.334;11.190;2024-03-22T12:37:25;28.20;61.00
16929;DHT22;8581;47.334;11.190;2024-03-22T12:39:57;25.40;61.70
16929;DHT22;8581;47.334;11.190;2024-03-22T12:42:29;23.00;63.80
16929;DHT22;8581;47.334;11.190;2024-03-22T12:45:01;23.80;64.00
16929;DHT22;8581;47.334;11.190;2024-03-22T12:47:32;25.30;61.10
16929;DHT22;8581;47.334;11.190;2024-03-22T12:50:05;27.10;60.00
16929;DHT22;8581;47.334;11.190;2024-03-22T12:52:38;27.50;57.50
16929;DHT22;8581;47.334;11.190;2024-03-22T12:55:10;25.80;56.70
16929;DHT22;8581;47.334;11.190;2024-03-22T12:57:42;24.50;58.10
16929;DHT22;8581;47.334;11.190;2024-03-22T13:00:15;27.10;61.20
16929;DHT22;8581;47.334;11.190;2024-03-22T13:02:47;29.60;54.80
16929;DHT22;8581;47.334;11.190;2024-03-22T13:05:19;28.00;53.10
16929;DHT22;8581;47.334;11.190;2024-03-22T13:07:52;27.50;50.40
16929;DHT22;8581;47.334;11.190;2024-03-22T13:10:24;24.70;56.20
16929;DHT22;8581;47.334;11.190;2024-03-22T13:12:55;24.50;56.80
16929;DHT22;8581;47.334;11.190;2024-03-22T13:15:28;26.50;56.00
16929;DHT22;8581;47.334;11.190;2024-03-22T13:18:00;27.40;57.80
16929;DHT22;8581;47.334;11.190;2024-03-22T13:20:35;29.30;52.30
16929;DHT22;8581;47.334;11.190;2024-03-22T13:23:04;28.90;52.50
16929;DHT22;8581;47.334;11.190;2024-03-22T13:25:37;28.00;52.70
16929;DHT22;8581;47.334;11.190;2024-03-22T13:28:08;28.00;53.40
16929;DHT22;8581;47.334;11.190;2024-03-22T13:30:40;26.80;51.20
16929;DHT22;8581;47.334;11.190;2024-03-22T13:33:12;27.10;51.60
16929;DHT22;8581;47.334;11.190;2024-03-22T13:35:45;28.40;52.30
16929;DHT22;8581;47.334;11.190;2024-03-22T13:38:17;29.80;52.10
16929;DHT22;8581;47.334;11.190;2024-03-22T13:40:53;26.60;51.90
16929;DHT22;8581;47.334;11.190;2024-03-22T13:43:26;27.50;49.40
16929;DHT22;8581;47.334;11.190;2024-03-22T13:45:57;27.50;49.60
16929;DHT22;8581;47.334;11.190;2024-03-22T13:48:29;26.80;50.60
16929;DHT22;8581;47.334;11.190;2024-03-22T13:51:01;25.60;51.30
16929;DHT22;8581;47.334;11.190;2024-03-22T13:53:33;27.40;53.60
16929;DHT22;8581;47.334;11.190;2024-03-22T13:56:06;27.60;51.00
16929;DHT22;8581;47.334;11.190;2024-03-22T13:58:38;29.00;48.50
16929;DHT22;8581;47.334;11.190;2024-03-22T14:01:09;28.60;49.60
16929;DHT22;8581;47.334;11.190;2024-03-22T14:03:41;26.70;51.50
16929;DHT22;8581;47.334;11.190;2024-03-22T14:06:13;27.00;50.40
16929;DHT22;8581;47.334;11.190;2024-03-22T14:08:45;27.20;49.40
16929;DHT22;8581;47.334;11.190;2024-03-22T14:11:17;27.40;50.20
16929;DHT22;8581;47.334;11.190;2024-03-22T14:13:49;28.00;49.30
16929;DHT22;8581;47.334;11.190;2024-03-22T14:16:21;29.30;48.30
16929;DHT22;8581;47.334;11.190;2024-03-22T14:18:53;27.50;51.30
16929;DHT22;8581;47.334;11.190;2024-03-22T14:21:25;30.00;50.40
16929;DHT22;8581;47.334;11.190;2024-03-22T14:23:57;29.90;47.60
16929;DHT22;8581;47.334;11.190;2024-03-22T14:26:29;28.10;50.20
16929;DHT22;8581;47.334;11.190;2024-03-22T14:29:01;28.60;51.10
16929;DHT22;8581;47.334;11.190;2024-03-22T14:31:33;27.30;51.50
16929;DHT22;8581;47.334;11.190;2024-03-22T14:34:06;28.40;51.00
16929;DHT22;8581;47.334;11.190;2024-03-22T14:36:38;26.70;51.30
16929;DHT22;8581;47.334;11.190;2024-03-22T14:39:10;26.70;51.00
16929;DHT22;8581;47.334;11.190;2024-03-22T14:41:42;25.40;52.70
16929;DHT22;8581;47.334;11.190;2024-03-22T14:44:14;26.30;51.70
16929;DHT22;8581;47.334;11.190;2024-03-22T14:46:46;25.80;51.50
16929;DHT22;8581;47.334;11.190;2024-03-22T14:49:18;24.10;53.30
16929;DHT22;8581;47.334;11.190;2024-03-22T14:51:50;22.50;56.80
16929;DHT22;8581;47.334;11.190;2024-03-22T14:54:23;23.30;56.10
16929;DHT22;8581;47.334;11.190;2024-03-22T14:56:55;22.60;56.10
16929;DHT22;8581;47.334;11.190;2024-03-22T14:59:28;22.20;57.10
16929;DHT22;8581;47.334;11.190;2024-03-22T15:01:59;21.80;56.50
16929;DHT22;8581;47.334;11.190;2024-03-22T15:04:31;21.00;59.30
16929;DHT22;8581;47.334;11.190;2024-03-22T15:07:03;20.10;59.70
16929;DHT22;8581;47.334;11.190;2024-03-22T15:09:35;20.60;61.10
16929;DHT22;8581;47.334;11.190;2024-03-22T15:12:08;20.20;62.30
16929;DHT22;8581;47.334;11.190;2024-03-22T15:14:40;19.30;62.20
16929;DHT22;8581;47.334;11.190;2024-03-22T15:17:12;18.80;64.80
16929;DHT22;8581;47.334;11.190;2024-03-22T15:19:45;19.00;63.50
16929;DHT22;8581;47.334;11.190;2024-03-22T15:22:17;18.70;64.70
16929;DHT22;8581;47.334;11.190;2024-03-22T15:24:50;18.20;66.00
16929;DHT22;8581;47.334;11.190;2024-03-22T15:27:22;18.30;65.30
16929;DHT22;8581;47.334;11.190;2024-03-22T15:29:54;17.70;67.60
16929;DHT22;8581;47.334;11.190;2024-03-22T15:32:26;18.10;68.00
16929;DHT22;8581;47.334;11.190;2024-03-22T15:34:58;18.60;65.60
16929;DHT22;8581;47.334;11.190;2024-03-22T15:37:31;18.40;66.70
16929;DHT22;8581;47.334;11.190;2024-03-22T15:40:04;18.00;66.80
16929;DHT22;8581;47.334;11.190;2024-03-22T15:45:25;18.00;67.90
16929;DHT22;8581;47.334;11.190;2024-03-22T15:47:57;18.60;67.20
16929;DHT22;8581;47.334;11.190;2024-03-22T15:50:29;18.80;67.00
16929;DHT22;8581;47.334;11.190;2024-03-22T15:53:02;18.70;66.20
16929;DHT22;8581;47.334;11.190;2024-03-22T15:55:34;18.70;66.60
16929;DHT22;8581;47.334;11.190;2024-03-22T15:58:06;18.30;69.00
16929;DHT22;8581;47.334;11.190;2024-03-22T16:00:38;19.90;68.90
16929;DHT22;8581;47.334;11.190;2024-03-22T16:03:10;20.60;68.80
16929;DHT22;8581;47.334;11.190;2024-03-22T16:05:52;20.80;69.60
16929;DHT22;8581;47.334;11.190;2024-03-22T16:08:24;21.20;66.80
16929;DHT22;8581;47.334;11.190;2024-03-22T16:10:56;20.40;70.50
16929;DHT22;8581;47.334;11.190;2024-03-22T16:13:29;20.30;69.20